sensor_id;sensor_type;location;lat;lon;timestamp;P1;durP1;ratioP1;P2;durP2;ratioP2
20709;SDS011;10516;51.518;9.864;2024-03-02T00:01:54;61.75;;;35.28;;
20709;SDS011;10516;51.518;9.864;2024-03-02T00:04:19;64.35;;;33.00;;
20709;SDS011;10516;51.518;9.864;2024-03-02T00:06:45;55.00;;;31.20;;
20709;SDS011;10516;51.518;9.864;2024-03-02T00:09:10;60.33;;;32.65;;
20709;SDS011;10516;51.518;9.864;2024-03-02T00:11:39;67.32;;;32.67;;
20709;SDS011;10516;51.518;9.864;2024-03-02T00:14:05;62.90;;;32.05;;
20709;SDS011;10516;51.518;9.864;2024-03-02T00:16:31;63.92;;;33.33;;
20709;SDS011;10516;51.518;9.864;2024-03-02T00:19:01;61.63;;;34.00;;
20709;SDS011;10516;51.518;9.864;2024-03-02T00:21:27;65.07;;;34.35;;
20709;SDS011;10516;51.518;9.864;2024-03-02T00:23:55;64.63;;;34.78;;
20709;SDS011;10516;51.518;9.864;2024-03-02T00:26:20;59.10;;;30.77;;
20709;SDS011;10516;51.518;9.864;2024-03-02T00:28:46;58.13;;;31.75;;
20709;SDS011;10516;51.518;9.864;2024-03-02T00:31:12;62.78;;;34.13;;
20709;SDS011;10516;51.518;9.864;2024-03-02T00:33:45;64.53;;;32.78;;
20709;SDS011;10516;51.518;9.864;2024-03-02T00:36:12;59.78;;;32.53;;
20709;SDS011;10516;51.518;9.864;2024-03-02T00:38:44;64.45;;;32.22;;
20709;SDS011;10516;51.518;9.864;2024-03-02T00:41:24;60.40;;;33.35;;
20709;SDS011;10516;51.518;9.864;2024-03-02T00:46:29;69.20;;;34.35;;
20709;SDS011;10516;51.518;9.864;2024-03-02T00:48:59;60.72;;;34.75;;
20709;SDS011;10516;51.518;9.864;2024-03-02T00:51:26;65.15;;;34.40;;
20709;SDS011;10516;51.518;9.864;2024-03-02T00:53:53;65.97;;;34.85;;
20709;SDS011;10516;51.518;9.864;2024-03-02T00:56:23;62.28;;;33.58;;
20709;SDS011;10516;51.518;9.864;2024-03-02T00:58:50;60.63;;;35.63;;
20709;SDS011;10516;51.518;9.864;2024-03-02T01:01:15;73.22;;;37.65;;
20709;SDS011;10516;51.518;9.864;2024-03-02T01:03:41;67.63;;;34.42;;
20709;SDS011;10516;51.518;9.864;2024-03-02T01:06:07;63.33;;;34.78;;
20709;SDS011;10516;51.518;9.864;2024-03-02T01:08:33;67.57;;;35.90;;
20709;SDS011;10516;51.518;9.864;2024-03-02T01:11:02;73.72;;;34.42;;
20709;SDS011;10516;51.518;9.864;2024-03-02T01:13:27;68.97;;;34.65;;
20709;SDS011;10516;51.518;9.864;2024-03-02T01:15:53;64.20;;;33.90;;
20709;SDS011;10516;51.518;9.864;2024-03-02T01:18:19;63.47;;;32.78;;
20709;SDS011;10516;51.518;9.864;2024-03-02T01:20:44;67.03;;;33.72;;
20709;SDS011;10516;51.518;9.864;2024-03-02T01:23:10;68.03;;;35.83;;
20709;SDS011;10516;51.518;9.864;2024-03-02T01:25:35;71.88;;;37.58;;
20709;SDS011;10516;51.518;9.864;2024-03-02T01:28:01;74.10;;;35.80;;
20709;SDS011;10516;51.518;9.864;2024-03-02T01:30:26;66.35;;;35.85;;
20709;SDS011;10516;51.518;9.864;2024-03-02T01:32:52;62.72;;;34.03;;
20709;SDS011;10516;51.518;9.864;2024-03-02T01:35:17;66.13;;;35.72;;
20709;SDS011;10516;51.518;9.864;2024-03-02T01:37:42;62.88;;;35.65;;
20709;SDS011;10516;51.518;9.864;2024-03-02T01:40:08;67.13;;;35.42;;
20709;SDS011;10516;51.518;9.864;2024-03-02T01:42:35;66.53;;;34.10;;
20709;SDS011;10516;51.518;9.864;2024-03-02T01:45:04;69.05;;;34.35;;
20709;SDS011;10516;51.518;9.864;2024-03-02T01:47:31;64.70;;;34.22;;
20709;SDS011;10516;51.518;9.864;2024-03-02T01:49:57;61.35;;;32.53;;
20709;SDS011;10516;51.518;9.864;2024-03-02T01:52:23;61.30;;;32.92;;
20709;SDS011;10516;51.518;9.864;2024-03-02T01:54:48;68.30;;;34.10;;
20709;SDS011;10516;51.518;9.864;2024-03-02T01:57:14;63.30;;;33.65;;
20709;SDS011;10516;51.518;9.864;2024-03-02T01:59:39;65.75;;;34.92;;
20709;SDS011;10516;51.518;9.864;2024-03-02T02:02:05;62.63;;;34.33;;
20709;SDS011;10516;51.518;9.864;2024-03-02T02:04:30;66.95;;;36.38;;
20709;SDS011;10516;51.518;9.864;2024-03-02T02:06:56;63.15;;;34.40;;
20709;SDS011;10516;51.518;9.864;2024-03-02T02:09:21;60.80;;;34.55;;
20709;SDS011;10516;51.518;9.864;2024-03-02T02:11:47;64.47;;;36.10;;
20709;SDS011;10516;51.518;9.864;2024-03-02T02:14:12;65.20;;;34.00;;
20709;SDS011;10516;51.518;9.864;2024-03-02T02:16:38;66.95;;;34.03;;
20709;SDS011;10516;51.518;9.864;2024-03-02T02:19:03;63.80;;;33.58;;
20709;SDS011;10516;51.518;9.864;2024-03-02T02:21:29;67.78;;;34.47;;
20709;SDS011;10516;51.518;9.864;2024-03-02T02:23:54;62.20;;;34.33;;
20709;SDS011;10516;51.518;9.864;2024-03-02T02:26:19;59.42;;;32.80;;
20709;SDS011;10516;51.518;9.864;2024-03-02T02:28:45;65.40;;;32.40;;
20709;SDS011;10516;51.518;9.864;2024-03-02T02:31:13;62.75;;;33.00;;
20709;SDS011;10516;51.518;9.864;2024-03-02T02:33:39;60.10;;;33.50;;
20709;SDS011;10516;51.518;9.864;2024-03-02T02:36:05;56.45;;;31.00;;
20709;SDS011;10516;51.518;9.864;2024-03-02T02:38:31;62.30;;;32.40;;
20709;SDS011;10516;51.518;9.864;2024-03-02T02:40:58;61.25;;;32.65;;
20709;SDS011;10516;51.518;9.864;2024-03-02T02:43:24;56.08;;;31.70;;
20709;SDS011;10516;51.518;9.864;2024-03-02T02:45:49;57.05;;;32.00;;
20709;SDS011;10516;51.518;9.864;2024-03-02T02:48:14;61.40;;;33.22;;
20709;SDS011;10516;51.518;9.864;2024-03-02T02:50:41;59.22;;;33.22;;
20709;SDS011;10516;51.518;9.864;2024-03-02T02:53:07;61.35;;;32.88;;
20709;SDS011;10516;51.518;9.864;2024-03-02T02:55:34;66.05;;;33.63;;
20709;SDS011;10516;51.518;9.864;2024-03-02T02:58:00;61.55;;;34.22;;
20709;SDS011;10516;51.518;9.864;2024-03-02T03:00:25;62.85;;;33.47;;
20709;SDS011;10516;51.518;9.864;2024-03-02T03:02:50;60.53;;;33.67;;
20709;SDS011;10516;51.518;9.864;2024-03-02T03:05:16;64.32;;;33.60;;
20709;SDS011;10516;51.518;9.864;2024-03-02T03:07:42;61.63;;;33.28;;
20709;SDS011;10516;51.518;9.864;2024-03-02T03:10:09;63.03;;;34.38;;
20709;SDS011;10516;51.518;9.864;2024-03-02T03:12:35;69.15;;;36.28;;
20709;SDS011;10516;51.518;9.864;2024-03-02T03:15:01;62.28;;;32.92;;
20709;SDS011;10516;51.518;9.864;2024-03-02T03:17:28;62.72;;;34.45;;
20709;SDS011;10516;51.518;9.864;2024-03-02T03:19:53;63.03;;;33.55;;
20709;SDS011;10516;51.518;9.864;2024-03-02T03:22:19;67.03;;;33.33;;
20709;SDS011;10516;51.518;9.864;2024-03-02T03:24:45;70.03;;;35.50;;
20709;SDS011;10516;51.518;9.864;2024-03-02T03:27:10;61.25;;;34.33;;
20709;SDS011;10516;51.518;9.864;2024-03-02T03:29:36;65.07;;;35.50;;
20709;SDS011;10516;51.518;9.864;2024-03-02T03:32:02;65.55;;;35.53;;
20709;SDS011;10516;51.518;9.864;2024-03-02T03:34:28;66.40;;;34.20;;
20709;SDS011;10516;51.518;9.864;2024-03-02T03:36:54;66.80;;;33.53;;
20709;SDS011;10516;51.518;9.864;2024-03-02T03:39:19;60.28;;;33.38;;
20709;SDS011;10516;51.518;9.864;2024-03-02T03:41:45;59.80;;;34.22;;
20709;SDS011;10516;51.518;9.864;2024-03-02T03:44:10;61.72;;;34.03;;
20709;SDS011;10516;51.518;9.864;2024-03-02T03:46:35;64.28;;;32.85;;
20709;SDS011;10516;51.518;9.864;2024-03-02T03:49:01;62.10;;;34.10;;
20709;SDS011;10516;51.518;9.864;2024-03-02T03:51:27;63.75;;;34.42;;
20709;SDS011;10516;51.518;9.864;2024-03-02T03:53:52;64.68;;;34.10;;
20709;SDS011;10516;51.518;9.864;2024-03-02T03:56:17;58.85;;;31.52;;
20709;SDS011;10516;51.518;9.864;2024-03-02T03:58:43;60.55;;;34.40;;
20709;SDS011;10516;51.518;9.864;2024-03-02T04:01:08;60.33;;;33.60;;
20709;SDS011;10516;51.518;9.864;2024-03-02T04:03:33;58.58;;;31.65;;
20709;SDS011;10516;51.518;9.864;2024-03-02T04:05:59;58.97;;;34.47;;
20709;SDS011;10516;51.518;9.864;2024-03-02T04:08:24;61.03;;;33.15;;
20709;SDS011;10516;51.518;9.864;2024-03-02T04:10:49;66.38;;;32.20;;
20709;SDS011;10516;51.518;9.864;2024-03-02T04:13:15;57.30;;;31.63;;
20709;SDS011;10516;51.518;9.864;2024-03-02T04:15:40;65.50;;;35.58;;
20709;SDS011;10516;51.518;9.864;2024-03-02T04:18:06;60.05;;;33.17;;
20709;SDS011;10516;51.518;9.864;2024-03-02T04:20:31;65.50;;;35.65;;
20709;SDS011;10516;51.518;9.864;2024-03-02T04:22:57;60.97;;;34.75;;
20709;SDS011;10516;51.518;9.864;2024-03-02T04:25:22;59.60;;;33.75;;
20709;SDS011;10516;51.518;9.864;2024-03-02T04:27:47;60.22;;;34.00;;
20709;SDS011;10516;51.518;9.864;2024-03-02T04:30:13;59.78;;;32.72;;
20709;SDS011;10516;51.518;9.864;2024-03-02T04:32:38;62.10;;;34.38;;
20709;SDS011;10516;51.518;9.864;2024-03-02T04:35:04;65.00;;;34.63;;
20709;SDS011;10516;51.518;9.864;2024-03-02T04:37:31;60.50;;;32.25;;
20709;SDS011;10516;51.518;9.864;2024-03-02T04:39:59;62.45;;;34.45;;
20709;SDS011;10516;51.518;9.864;2024-03-02T04:42:24;66.65;;;34.20;;
20709;SDS011;10516;51.518;9.864;2024-03-02T04:44:50;55.95;;;32.95;;
20709;SDS011;10516;51.518;9.864;2024-03-02T04:47:15;61.28;;;33.63;;
20709;SDS011;10516;51.518;9.864;2024-03-02T04:49:41;64.60;;;32.75;;
20709;SDS011;10516;51.518;9.864;2024-03-02T04:52:06;62.65;;;32.78;;
20709;SDS011;10516;51.518;9.864;2024-03-02T04:54:31;63.83;;;34.90;;
20709;SDS011;10516;51.518;9.864;2024-03-02T04:56:57;58.13;;;31.13;;
20709;SDS011;10516;51.518;9.864;2024-03-02T04:59:23;64.07;;;33.58;;
20709;SDS011;10516;51.518;9.864;2024-03-02T05:01:48;58.25;;;32.03;;
20709;SDS011;10516;51.518;9.864;2024-03-02T05:04:14;67.75;;;33.85;;
20709;SDS011;10516;51.518;9.864;2024-03-02T05:06:39;69.55;;;34.42;;
20709;SDS011;10516;51.518;9.864;2024-03-02T05:09:08;62.03;;;32.55;;
20709;SDS011;10516;51.518;9.864;2024-03-02T05:11:33;64.35;;;34.20;;
20709;SDS011;10516;51.518;9.864;2024-03-02T05:14:01;65.30;;;33.88;;
20709;SDS011;10516;51.518;9.864;2024-03-02T05:16:27;63.65;;;34.47;;
20709;SDS011;10516;51.518;9.864;2024-03-02T05:18:52;58.97;;;33.67;;
20709;SDS011;10516;51.518;9.864;2024-03-02T05:21:17;65.63;;;35.40;;
20709;SDS011;10516;51.518;9.864;2024-03-02T05:23:43;61.60;;;32.28;;
20709;SDS011;10516;51.518;9.864;2024-03-02T05:26:09;61.65;;;32.33;;
20709;SDS011;10516;51.518;9.864;2024-03-02T05:28:37;75.43;;;37.67;;
20709;SDS011;10516;51.518;9.864;2024-03-02T05:31:03;79.20;;;40.17;;
20709;SDS011;10516;51.518;9.864;2024-03-02T05:33:29;66.47;;;35.60;;
20709;SDS011;10516;51.518;9.864;2024-03-02T05:35:56;77.93;;;36.65;;
20709;SDS011;10516;51.518;9.864;2024-03-02T05:38:21;70.20;;;35.70;;
20709;SDS011;10516;51.518;9.864;2024-03-02T05:40:47;78.35;;;39.22;;
20709;SDS011;10516;51.518;9.864;2024-03-02T05:43:12;76.63;;;37.88;;
20709;SDS011;10516;51.518;9.864;2024-03-02T05:45:38;70.10;;;36.20;;
20709;SDS011;10516;51.518;9.864;2024-03-02T05:48:04;67.18;;;35.45;;
20709;SDS011;10516;51.518;9.864;2024-03-02T05:50:34;72.75;;;34.67;;
20709;SDS011;10516;51.518;9.864;2024-03-02T05:52:59;67.65;;;35.92;;
20709;SDS011;10516;51.518;9.864;2024-03-02T05:55:24;65.65;;;34.63;;
20709;SDS011;10516;51.518;9.864;2024-03-02T05:57:50;61.00;;;35.35;;
20709;SDS011;10516;51.518;9.864;2024-03-02T06:00:41;61.03;;;32.72;;
20709;SDS011;10516;51.518;9.864;2024-03-02T06:03:07;66.93;;;36.88;;
20709;SDS011;10516;51.518;9.864;2024-03-02T06:05:34;69.78;;;37.53;;
20709;SDS011;10516;51.518;9.864;2024-03-02T06:07:59;66.93;;;34.47;;
20709;SDS011;10516;51.518;9.864;2024-03-02T06:10:25;65.20;;;31.85;;
20709;SDS011;10516;51.518;9.864;2024-03-02T06:12:50;74.07;;;39.38;;
20709;SDS011;10516;51.518;9.864;2024-03-02T06:15:16;72.07;;;33.95;;
20709;SDS011;10516;51.518;9.864;2024-03-02T06:17:42;61.90;;;33.42;;
20709;SDS011;10516;51.518;9.864;2024-03-02T06:20:07;66.07;;;35.00;;
20709;SDS011;10516;51.518;9.864;2024-03-02T06:22:33;69.68;;;35.38;;
20709;SDS011;10516;51.518;9.864;2024-03-02T06:24:59;68.35;;;36.67;;
20709;SDS011;10516;51.518;9.864;2024-03-02T06:27:26;70.88;;;35.13;;
20709;SDS011;10516;51.518;9.864;2024-03-02T06:29:51;75.28;;;34.67;;
20709;SDS011;10516;51.518;9.864;2024-03-02T06:32:17;62.22;;;33.15;;
20709;SDS011;10516;51.518;9.864;2024-03-02T06:34:42;62.40;;;33.00;;
20709;SDS011;10516;51.518;9.864;2024-03-02T06:37:08;68.75;;;35.55;;
20709;SDS011;10516;51.518;9.864;2024-03-02T06:39:33;67.25;;;35.65;;
20709;SDS011;10516;51.518;9.864;2024-03-02T06:41:59;64.75;;;33.65;;
20709;SDS011;10516;51.518;9.864;2024-03-02T06:44:25;70.32;;;37.47;;
20709;SDS011;10516;51.518;9.864;2024-03-02T06:46:50;72.95;;;37.83;;
20709;SDS011;10516;51.518;9.864;2024-03-02T06:49:16;77.13;;;36.83;;
20709;SDS011;10516;51.518;9.864;2024-03-02T06:51:43;71.43;;;37.55;;
20709;SDS011;10516;51.518;9.864;2024-03-02T06:54:08;68.70;;;34.65;;
20709;SDS011;10516;51.518;9.864;2024-03-02T06:56:34;66.60;;;35.38;;
20709;SDS011;10516;51.518;9.864;2024-03-02T06:58:59;70.50;;;35.42;;
20709;SDS011;10516;51.518;9.864;2024-03-02T07:01:25;70.05;;;34.17;;
20709;SDS011;10516;51.518;9.864;2024-03-02T07:03:51;67.93;;;34.47;;
20709;SDS011;10516;51.518;9.864;2024-03-02T07:06:16;59.08;;;33.05;;
20709;SDS011;10516;51.518;9.864;2024-03-02T07:08:42;66.88;;;33.38;;
20709;SDS011;10516;51.518;9.864;2024-03-02T07:11:10;59.25;;;31.52;;
20709;SDS011;10516;51.518;9.864;2024-03-02T07:13:35;65.40;;;34.13;;
20709;SDS011;10516;51.518;9.864;2024-03-02T07:16:01;60.22;;;32.40;;
20709;SDS011;10516;51.518;9.864;2024-03-02T07:18:36;63.63;;;33.05;;
20709;SDS011;10516;51.518;9.864;2024-03-02T07:21:10;57.08;;;32.58;;
20709;SDS011;10516;51.518;9.864;2024-03-02T07:23:35;67.82;;;34.35;;
20709;SDS011;10516;51.518;9.864;2024-03-02T07:26:01;69.38;;;33.28;;
20709;SDS011;10516;51.518;9.864;2024-03-02T07:28:26;64.28;;;33.97;;
20709;SDS011;10516;51.518;9.864;2024-03-02T07:30:59;62.00;;;32.50;;
20709;SDS011;10516;51.518;9.864;2024-03-02T07:33:29;64.85;;;32.30;;
20709;SDS011;10516;51.518;9.864;2024-03-02T07:35:58;60.67;;;32.83;;
20709;SDS011;10516;51.518;9.864;2024-03-02T07:38:25;62.67;;;33.22;;
20709;SDS011;10516;51.518;9.864;2024-03-02T07:40:52;70.20;;;35.03;;
20709;SDS011;10516;51.518;9.864;2024-03-02T07:43:20;62.45;;;34.40;;
20709;SDS011;10516;51.518;9.864;2024-03-02T07:45:46;67.20;;;34.75;;
20709;SDS011;10516;51.518;9.864;2024-03-02T07:48:12;61.78;;;33.22;;
20709;SDS011;10516;51.518;9.864;2024-03-02T07:50:37;65.07;;;34.40;;
20709;SDS011;10516;51.518;9.864;2024-03-02T07:53:05;59.67;;;32.75;;
20709;SDS011;10516;51.518;9.864;2024-03-02T07:55:32;64.93;;;34.13;;
20709;SDS011;10516;51.518;9.864;2024-03-02T07:57:58;68.20;;;36.05;;
20709;SDS011;10516;51.518;9.864;2024-03-02T08:00:23;66.63;;;33.33;;
20709;SDS011;10516;51.518;9.864;2024-03-02T08:02:50;61.53;;;30.95;;
20709;SDS011;10516;51.518;9.864;2024-03-02T08:05:17;68.10;;;35.42;;
20709;SDS011;10516;51.518;9.864;2024-03-02T08:07:44;71.90;;;36.33;;
20709;SDS011;10516;51.518;9.864;2024-03-02T08:10:10;64.28;;;35.30;;
20709;SDS011;10516;51.518;9.864;2024-03-02T08:12:35;64.38;;;35.17;;
20709;SDS011;10516;51.518;9.864;2024-03-02T08:15:00;68.18;;;35.38;;
20709;SDS011;10516;51.518;9.864;2024-03-02T08:17:29;65.30;;;32.45;;
20709;SDS011;10516;51.518;9.864;2024-03-02T08:19:55;62.22;;;32.88;;
20709;SDS011;10516;51.518;9.864;2024-03-02T08:22:21;64.60;;;33.97;;
20709;SDS011;10516;51.518;9.864;2024-03-02T08:24:47;57.97;;;31.77;;
20709;SDS011;10516;51.518;9.864;2024-03-02T08:27:13;61.17;;;34.10;;
20709;SDS011;10516;51.518;9.864;2024-03-02T08:29:38;57.67;;;32.40;;
20709;SDS011;10516;51.518;9.864;2024-03-02T08:32:05;59.80;;;31.67;;
20709;SDS011;10516;51.518;9.864;2024-03-02T08:34:31;62.13;;;31.70;;
20709;SDS011;10516;51.518;9.864;2024-03-02T08:36:56;63.53;;;33.38;;
20709;SDS011;10516;51.518;9.864;2024-03-02T08:39:22;62.53;;;32.88;;
20709;SDS011;10516;51.518;9.864;2024-03-02T08:41:47;65.30;;;35.05;;
20709;SDS011;10516;51.518;9.864;2024-03-02T08:44:13;61.10;;;32.85;;
20709;SDS011;10516;51.518;9.864;2024-03-02T08:46:40;63.28;;;36.65;;
20709;SDS011;10516;51.518;9.864;2024-03-02T08:49:05;56.90;;;32.55;;
20709;SDS011;10516;51.518;9.864;2024-03-02T08:51:31;61.40;;;33.65;;
20709;SDS011;10516;51.518;9.864;2024-03-02T08:53:57;58.55;;;31.95;;
20709;SDS011;10516;51.518;9.864;2024-03-02T08:56:23;63.30;;;34.10;;
20709;SDS011;10516;51.518;9.864;2024-03-02T08:58:49;61.65;;;31.58;;
20709;SDS011;10516;51.518;9.864;2024-03-02T09:01:14;56.90;;;31.10;;
20709;SDS011;10516;51.518;9.864;2024-03-02T09:03:41;63.67;;;31.38;;
20709;SDS011;10516;51.518;9.864;2024-03-02T09:06:09;57.67;;;30.33;;
20709;SDS011;10516;51.518;9.864;2024-03-02T09:08:35;53.28;;;30.23;;
20709;SDS011;10516;51.518;9.864;2024-03-02T09:11:01;52.38;;;29.52;;
20709;SDS011;10516;51.518;9.864;2024-03-02T09:13:28;53.83;;;30.33;;
20709;SDS011;10516;51.518;9.864;2024-03-02T09:15:54;55.78;;;31.17;;
20709;SDS011;10516;51.518;9.864;2024-03-02T09:18:19;50.00;;;30.65;;
20709;SDS011;10516;51.518;9.864;2024-03-02T09:20:45;54.03;;;28.65;;
20709;SDS011;10516;51.518;9.864;2024-03-02T09:23:11;56.28;;;30.98;;
20709;SDS011;10516;51.518;9.864;2024-03-02T09:25:36;50.42;;;28.90;;
20709;SDS011;10516;51.518;9.864;2024-03-02T09:28:02;52.42;;;30.08;;
20709;SDS011;10516;51.518;9.864;2024-03-02T09:30:28;48.10;;;27.00;;
20709;SDS011;10516;51.518;9.864;2024-03-02T09:32:53;51.83;;;28.60;;
20709;SDS011;10516;51.518;9.864;2024-03-02T09:35:18;46.50;;;27.85;;
20709;SDS011;10516;51.518;9.864;2024-03-02T09:37:44;48.95;;;28.08;;
20709;SDS011;10516;51.518;9.864;2024-03-02T09:40:10;49.75;;;27.77;;
20709;SDS011;10516;51.518;9.864;2024-03-02T09:42:36;51.42;;;27.17;;
20709;SDS011;10516;51.518;9.864;2024-03-02T09:45:02;48.42;;;27.90;;
20709;SDS011;10516;51.518;9.864;2024-03-02T09:47:28;51.65;;;27.08;;
20709;SDS011;10516;51.518;9.864;2024-03-02T09:49:54;54.67;;;29.08;;
20709;SDS011;10516;51.518;9.864;2024-03-02T09:52:20;52.35;;;29.08;;
20709;SDS011;10516;51.518;9.864;2024-03-02T09:54:47;48.65;;;28.25;;
20709;SDS011;10516;51.518;9.864;2024-03-02T09:57:14;53.03;;;28.65;;
20709;SDS011;10516;51.518;9.864;2024-03-02T09:59:39;46.65;;;27.05;;
20709;SDS011;10516;51.518;9.864;2024-03-02T10:02:05;47.72;;;27.02;;
20709;SDS011;10516;51.518;9.864;2024-03-02T10:04:32;44.03;;;25.40;;
20709;SDS011;10516;51.518;9.864;2024-03-02T10:07:17;43.65;;;25.35;;
20709;SDS011;10516;51.518;9.864;2024-03-02T10:09:44;46.17;;;25.77;;
20709;SDS011;10516;51.518;9.864;2024-03-02T10:12:11;44.67;;;25.10;;
20709;SDS011;10516;51.518;9.864;2024-03-02T10:14:39;44.10;;;25.95;;
20709;SDS011;10516;51.518;9.864;2024-03-02T10:17:12;41.63;;;23.80;;
20709;SDS011;10516;51.518;9.864;2024-03-02T10:19:39;44.22;;;24.33;;
20709;SDS011;10516;51.518;9.864;2024-03-02T10:22:05;41.58;;;24.67;;
20709;SDS011;10516;51.518;9.864;2024-03-02T10:24:35;40.53;;;23.92;;
20709;SDS011;10516;51.518;9.864;2024-03-02T10:27:45;43.25;;;23.60;;
20709;SDS011;10516;51.518;9.864;2024-03-02T10:29:52;41.25;;;23.60;;
20709;SDS011;10516;51.518;9.864;2024-03-02T10:32:18;38.10;;;22.58;;
20709;SDS011;10516;51.518;9.864;2024-03-02T10:34:47;45.35;;;24.00;;
20709;SDS011;10516;51.518;9.864;2024-03-02T10:37:13;37.40;;;21.85;;
20709;SDS011;10516;51.518;9.864;2024-03-02T10:39:39;37.70;;;22.30;;
20709;SDS011;10516;51.518;9.864;2024-03-02T10:42:05;37.20;;;22.08;;
20709;SDS011;10516;51.518;9.864;2024-03-02T10:44:32;38.67;;;22.38;;
20709;SDS011;10516;51.518;9.864;2024-03-02T10:47:02;43.20;;;23.08;;
20709;SDS011;10516;51.518;9.864;2024-03-02T10:49:29;31.90;;;19.95;;
20709;SDS011;10516;51.518;9.864;2024-03-02T10:51:56;32.15;;;20.83;;
20709;SDS011;10516;51.518;9.864;2024-03-02T10:54:25;34.38;;;20.65;;
20709;SDS011;10516;51.518;9.864;2024-03-02T10:56:54;33.88;;;19.73;;
20709;SDS011;10516;51.518;9.864;2024-03-02T10:59:33;33.63;;;21.05;;
20709;SDS011;10516;51.518;9.864;2024-03-02T11:02:00;36.30;;;20.15;;
20709;SDS011;10516;51.518;9.864;2024-03-02T11:04:27;40.70;;;24.25;;
20709;SDS011;10516;51.518;9.864;2024-03-02T11:07:02;50.80;;;29.17;;
20709;SDS011;10516;51.518;9.864;2024-03-02T11:09:29;38.35;;;22.88;;
20709;SDS011;10516;51.518;9.864;2024-03-02T11:12:02;33.55;;;21.02;;
20709;SDS011;10516;51.518;9.864;2024-03-02T11:14:29;31.10;;;19.10;;
20709;SDS011;10516;51.518;9.864;2024-03-02T11:16:59;35.03;;;20.92;;
20709;SDS011;10516;51.518;9.864;2024-03-02T11:19:28;32.33;;;19.35;;
20709;SDS011;10516;51.518;9.864;2024-03-02T11:21:56;29.80;;;19.38;;
20709;SDS011;10516;51.518;9.864;2024-03-02T11:26:48;27.52;;;18.02;;
20709;SDS011;10516;51.518;9.864;2024-03-02T11:32:01;33.17;;;17.98;;
20709;SDS011;10516;51.518;9.864;2024-03-02T11:34:31;32.65;;;20.70;;
20709;SDS011;10516;51.518;9.864;2024-03-02T11:36:58;33.50;;;20.33;;
20709;SDS011;10516;51.518;9.864;2024-03-02T11:39:28;62.25;;;34.58;;
20709;SDS011;10516;51.518;9.864;2024-03-02T11:41:54;79.82;;;45.83;;
20709;SDS011;10516;51.518;9.864;2024-03-02T11:44:20;52.83;;;32.47;;
20709;SDS011;10516;51.518;9.864;2024-03-02T11:46:59;44.38;;;26.67;;
20709;SDS011;10516;51.518;9.864;2024-03-02T11:49:36;30.80;;;19.63;;
20709;SDS011;10516;51.518;9.864;2024-03-02T11:52:05;32.90;;;20.33;;
20709;SDS011;10516;51.518;9.864;2024-03-02T11:54:32;25.55;;;16.02;;
20709;SDS011;10516;51.518;9.864;2024-03-02T11:57:02;24.13;;;14.93;;
20709;SDS011;10516;51.518;9.864;2024-03-02T11:59:31;26.25;;;16.40;;
20709;SDS011;10516;51.518;9.864;2024-03-02T12:01:57;23.92;;;15.15;;
20709;SDS011;10516;51.518;9.864;2024-03-02T12:04:24;20.50;;;13.77;;
20709;SDS011;10516;51.518;9.864;2024-03-02T12:06:59;20.20;;;14.35;;
20709;SDS011;10516;51.518;9.864;2024-03-02T12:09:28;25.98;;;14.85;;
20709;SDS011;10516;51.518;9.864;2024-03-02T12:14:49;22.90;;;15.65;;
20709;SDS011;10516;51.518;9.864;2024-03-02T12:17:15;20.25;;;14.27;;
20709;SDS011;10516;51.518;9.864;2024-03-02T12:19:40;23.63;;;13.90;;
20709;SDS011;10516;51.518;9.864;2024-03-02T12:22:06;23.23;;;14.25;;
20709;SDS011;10516;51.518;9.864;2024-03-02T12:24:31;26.13;;;15.20;;
20709;SDS011;10516;51.518;9.864;2024-03-02T12:26:57;22.98;;;14.00;;
20709;SDS011;10516;51.518;9.864;2024-03-02T12:29:22;24.63;;;14.65;;
20709;SDS011;10516;51.518;9.864;2024-03-02T12:31:49;20.05;;;12.93;;
20709;SDS011;10516;51.518;9.864;2024-03-02T12:34:17;21.38;;;13.38;;
20709;SDS011;10516;51.518;9.864;2024-03-02T12:36:44;24.05;;;12.90;;
20709;SDS011;10516;51.518;9.864;2024-03-02T12:39:12;18.63;;;12.18;;
20709;SDS011;10516;51.518;9.864;2024-03-02T12:41:38;20.95;;;13.25;;
20709;SDS011;10516;51.518;9.864;2024-03-02T12:44:05;20.33;;;12.77;;
20709;SDS011;10516;51.518;9.864;2024-03-02T12:46:31;16.90;;;11.95;;
20709;SDS011;10516;51.518;9.864;2024-03-02T12:48:57;19.45;;;12.32;;
20709;SDS011;10516;51.518;9.864;2024-03-02T12:51:24;20.77;;;12.43;;
20709;SDS011;10516;51.518;9.864;2024-03-02T12:53:53;19.20;;;12.13;;
20709;SDS011;10516;51.518;9.864;2024-03-02T12:56:24;18.58;;;12.18;;
20709;SDS011;10516;51.518;9.864;2024-03-02T12:58:56;21.58;;;11.70;;
20709;SDS011;10516;51.518;9.864;2024-03-02T13:01:21;17.30;;;10.77;;
20709;SDS011;10516;51.518;9.864;2024-03-02T13:03:50;14.10;;;10.50;;
20709;SDS011;10516;51.518;9.864;2024-03-02T13:06:17;22.67;;;12.63;;
20709;SDS011;10516;51.518;9.864;2024-03-02T13:08:43;17.35;;;10.15;;
20709;SDS011;10516;51.518;9.864;2024-03-02T13:11:13;16.98;;;9.15;;
20709;SDS011;10516;51.518;9.864;2024-03-02T13:13:39;16.60;;;8.80;;
20709;SDS011;10516;51.518;9.864;2024-03-02T13:16:08;11.00;;;7.60;;
20709;SDS011;10516;51.518;9.864;2024-03-02T13:18:35;12.02;;;8.35;;
20709;SDS011;10516;51.518;9.864;2024-03-02T13:21:01;14.77;;;7.75;;
20709;SDS011;10516;51.518;9.864;2024-03-02T13:23:26;16.80;;;10.60;;
20709;SDS011;10516;51.518;9.864;2024-03-02T13:25:58;14.68;;;8.93;;
20709;SDS011;10516;51.518;9.864;2024-03-02T13:28:23;14.57;;;8.82;;
20709;SDS011;10516;51.518;9.864;2024-03-02T13:30:49;11.20;;;8.05;;
20709;SDS011;10516;51.518;9.864;2024-03-02T13:33:15;13.43;;;8.15;;
20709;SDS011;10516;51.518;9.864;2024-03-02T13:35:40;10.35;;;7.35;;
20709;SDS011;10516;51.518;9.864;2024-03-02T13:38:05;15.60;;;7.28;;
20709;SDS011;10516;51.518;9.864;2024-03-02T13:40:31;12.57;;;6.13;;
20709;SDS011;10516;51.518;9.864;2024-03-02T13:43:00;11.90;;;6.93;;
20709;SDS011;10516;51.518;9.864;2024-03-02T13:45:26;14.00;;;6.93;;
20709;SDS011;10516;51.518;9.864;2024-03-02T13:47:55;8.23;;;6.38;;
20709;SDS011;10516;51.518;9.864;2024-03-02T13:50:21;11.25;;;5.43;;
20709;SDS011;10516;51.518;9.864;2024-03-02T13:52:46;8.32;;;5.47;;
20709;SDS011;10516;51.518;9.864;2024-03-02T13:55:12;9.73;;;5.05;;
20709;SDS011;10516;51.518;9.864;2024-03-02T13:57:37;9.52;;;5.10;;
20709;SDS011;10516;51.518;9.864;2024-03-02T14:00:03;6.45;;;4.20;;
20709;SDS011;10516;51.518;9.864;2024-03-02T14:02:35;7.95;;;5.88;;
20709;SDS011;10516;51.518;9.864;2024-03-02T14:05:00;7.70;;;4.90;;
20709;SDS011;10516;51.518;9.864;2024-03-02T14:07:26;5.22;;;4.03;;
20709;SDS011;10516;51.518;9.864;2024-03-02T14:09:51;5.30;;;4.40;;
20709;SDS011;10516;51.518;9.864;2024-03-02T14:12:17;6.03;;;3.38;;
20709;SDS011;10516;51.518;9.864;2024-03-02T14:14:42;3.78;;;3.08;;
20709;SDS011;10516;51.518;9.864;2024-03-02T14:17:07;6.43;;;3.50;;
20709;SDS011;10516;51.518;9.864;2024-03-02T14:19:39;5.55;;;3.42;;
20709;SDS011;10516;51.518;9.864;2024-03-02T14:22:04;4.47;;;3.22;;
20709;SDS011;10516;51.518;9.864;2024-03-02T14:24:30;4.18;;;3.17;;
20709;SDS011;10516;51.518;9.864;2024-03-02T14:26:55;4.32;;;3.25;;
20709;SDS011;10516;51.518;9.864;2024-03-02T14:29:22;3.20;;;2.75;;
20709;SDS011;10516;51.518;9.864;2024-03-02T14:31:48;2.38;;;2.17;;